La Pecadora — ZGFW7 — position and weather

sailwx.info

Track history (hours):
 
Tides and Currents Weather Stations Pressure Air Temp Water Temp Dewpoint Dewpoint Depression Visibility Wind Speed Wind Dir Waves Ship Positions

La Pecadora

Last reported at 2018-Feb-28 19:14 UTC. Time now 2018-Apr-19 18:58 UTC.
Position N 09°11' W 079°53'.
Warning: this ship's position is 49 days out of date.

Length 21 m; draft 3.5 m.

Type: Sailing vessel. MMSI: 319106800.

Date/timePositionNaut miles runAvg speedWind from/ knotsBaromVisibWave heightAir tempDewpointWater temp
2018-Feb-28 19:14N 09°11' W 079°53'3 8.4
2018-Feb-28 18:54N 09°13' W 079°55'3 8.0
2018-Feb-28 18:30N 09°16' W 079°55'1 1.2
2018-Feb-28 17:59N 09°16' W 079°55'0 0.4
2018-Feb-28 17:30N 09°17' W 079°55'0 0.3
2018-Feb-28 16:57N 09°17' W 079°55'1 1.3
2018-Feb-28 16:30N 09°17' W 079°55'0 0.7
2018-Feb-28 15:59N 09°18' W 079°55'2 3.7
2018-Feb-28 15:30N 09°19' W 079°55'1 3.0
2018-Feb-28 15:00N 09°21' W 079°55'0 0.1
2018-Feb-28 14:30N 09°21' W 079°55'1 1.7
2018-Feb-28 14:00N 09°21' W 079°56'0 0.0
2018-Feb-28 13:30N 09°21' W 079°56'0 0.0
2018-Feb-28 12:58N 09°21' W 079°56'0 0.0
2018-Feb-28 12:30N 09°21' W 079°56'0 0.3
2018-Feb-28 12:00N 09°21' W 079°55'  
2018-Feb-24 00:14N 09°22' W 079°57'0 0.0
2018-Feb-23 23:58N 09°22' W 079°57'2 3.4
2018-Feb-23 23:30N 09°23' W 079°55'4 7.3
2018-Feb-23 23:00N 09°26' W 079°53'4 6.9
2018-Feb-23 22:29N 09°28' W 079°50'4 6.9
2018-Feb-23 21:54N 09°31' W 079°48'  
Track history (hours):
 
Tides and Currents Weather Stations Pressure Air Temp Water Temp Dewpoint Dewpoint Depression Visibility Wind Speed Wind Dir Waves Ship Positions

La Pecadora

Last reported at 2018-Feb-28 19:14 UTC. Time now 2018-Apr-19 18:58 UTC.
Position N 09°11' W 079°53'.
Warning: this ship's position is 49 days out of date.

Length 21 m; draft 3.5 m.

Type: Sailing vessel. MMSI: 319106800.

Date/timePositionNaut miles runAvg speedWind from/ knotsBaromVisibWave heightAir tempDewpointWater temp
2018-Feb-28 19:14N 09°11' W 079°53'3 8.4
2018-Feb-28 18:54N 09°13' W 079°55'3 8.0
2018-Feb-28 18:30N 09°16' W 079°55'1 1.2
2018-Feb-28 17:59N 09°16' W 079°55'0 0.4
2018-Feb-28 17:30N 09°17' W 079°55'0 0.3
2018-Feb-28 16:57N 09°17' W 079°55'1 1.3
2018-Feb-28 16:30N 09°17' W 079°55'0 0.7
2018-Feb-28 15:59N 09°18' W 079°55'2 3.7
2018-Feb-28 15:30N 09°19' W 079°55'1 3.0
2018-Feb-28 15:00N 09°21' W 079°55'0 0.1
2018-Feb-28 14:30N 09°21' W 079°55'1 1.7
2018-Feb-28 14:00N 09°21' W 079°56'0 0.0
2018-Feb-28 13:30N 09°21' W 079°56'0 0.0
2018-Feb-28 12:58N 09°21' W 079°56'0 0.0
2018-Feb-28 12:30N 09°21' W 079°56'0 0.3
2018-Feb-28 12:00N 09°21' W 079°55'  
2018-Feb-24 00:14N 09°22' W 079°57'0 0.0
2018-Feb-23 23:58N 09°22' W 079°57'2 3.4
2018-Feb-23 23:30N 09°23' W 079°55'4 7.3
2018-Feb-23 23:00N 09°26' W 079°53'4 6.9
2018-Feb-23 22:29N 09°28' W 079°50'4 6.9
2018-Feb-23 21:54N 09°31' W 079°48'  

Dump ship's entire track history